createdAt,value
2023-05-06T00:02:24.204Z,79.01
2023-05-06T00:04:57.130Z,79.21
2023-05-06T00:07:29.846Z,78.81
2023-05-06T00:10:02.566Z,79.00
2023-05-06T00:12:36.946Z,78.74
2023-05-06T00:15:10.232Z,78.79
2023-05-06T00:17:43.450Z,78.61
2023-05-06T00:20:16.260Z,78.96
2023-05-06T00:22:49.056Z,79.19
2023-05-06T00:25:22.037Z,79.74
2023-05-06T00:27:56.288Z,79.73
2023-05-06T00:30:29.073Z,79.43
2023-05-06T00:33:02.245Z,79.41
2023-05-06T00:35:34.946Z,79.78
2023-05-06T00:38:08.797Z,79.52
2023-05-06T00:40:42.448Z,79.71
2023-05-06T00:43:16.521Z,79.79
2023-05-06T00:45:49.558Z,79.81
2023-05-06T00:48:23.167Z,79.84
2023-05-06T00:50:55.861Z,80.23
2023-05-06T00:53:28.889Z,80.31
2023-05-06T00:56:01.618Z,80.14
2023-05-06T00:58:36.457Z,80.61
2023-05-06T01:01:09.488Z,80.53
2023-05-06T01:03:42.703Z,80.74
2023-05-06T01:06:20.634Z,80.65
2023-05-06T01:08:56.432Z,80.79
2023-05-06T01:11:31.761Z,80.86
2023-05-06T01:14:09.486Z,80.56
2023-05-06T01:16:42.826Z,80.55
2023-05-06T01:19:22.854Z,80.54
2023-05-06T01:21:56.304Z,79.69
2023-05-06T01:24:41.772Z,79.08
2023-05-06T01:27:16.701Z,78.60
2023-05-06T01:29:49.601Z,78.33
2023-05-06T01:32:29.044Z,78.28
2023-05-06T01:35:04.915Z,77.99
2023-05-06T01:37:43.338Z,78.44
2023-05-06T01:40:19.572Z,78.64
2023-05-06T01:42:52.351Z,78.76
2023-05-06T01:45:29.072Z,79.00
2023-05-06T01:48:02.287Z,79.32
2023-05-06T01:50:35.181Z,79.83
2023-05-06T01:53:08.032Z,79.96
2023-05-06T01:55:42.202Z,79.96
2023-05-06T01:58:15.098Z,80.20
2023-05-06T02:00:48.054Z,80.35
2023-05-06T02:03:21.479Z,80.22
2023-05-06T02:05:54.636Z,80.32
2023-05-06T02:08:27.951Z,80.56
2023-05-06T02:11:01.989Z,80.99
2023-05-06T02:13:34.707Z,80.78
2023-05-06T02:16:08.957Z,81.03
2023-05-06T02:18:41.879Z,80.75
2023-05-06T02:21:14.926Z,80.53
2023-05-06T02:23:47.640Z,80.55
2023-05-06T02:26:21.690Z,80.58
2023-05-06T02:28:54.363Z,80.03
2023-05-06T02:31:27.149Z,80.06
2023-05-06T02:33:59.884Z,80.17
2023-05-06T02:36:32.621Z,80.10
2023-05-06T02:39:05.902Z,80.02
2023-05-06T02:41:40.169Z,80.04
2023-05-06T02:44:12.873Z,80.09
2023-05-06T02:46:45.733Z,80.08
2023-05-06T02:49:18.671Z,80.50
2023-05-06T02:51:51.526Z,80.22
2023-05-06T02:54:24.396Z,80.28
2023-05-06T02:56:58.916Z,80.19
2023-05-06T02:59:31.721Z,80.24
2023-05-06T03:02:04.458Z,79.83
2023-05-06T03:04:37.257Z,79.61
2023-05-06T03:07:10.143Z,78.95
2023-05-06T03:09:42.852Z,78.96
2023-05-06T03:12:17.077Z,78.83
2023-05-06T03:14:49.804Z,79.05
2023-05-06T03:17:22.670Z,79.48
2023-05-06T03:19:55.534Z,79.68
2023-05-06T03:22:28.342Z,80.18
2023-05-06T03:25:01.177Z,79.92
2023-05-06T03:27:35.664Z,80.32
2023-05-06T03:30:09.624Z,80.52
2023-05-06T03:32:42.308Z,80.36
2023-05-06T03:35:15.018Z,80.47
2023-05-06T03:37:47.799Z,80.46
2023-05-06T03:40:20.667Z,80.37
2023-05-06T03:42:54.722Z,80.44
2023-05-06T03:45:28.056Z,80.27
2023-05-06T03:48:00.810Z,80.25
2023-05-06T03:50:33.559Z,80.34
2023-05-06T03:53:06.462Z,80.43
2023-05-06T03:55:39.451Z,80.30
2023-05-06T03:58:13.786Z,80.02
2023-05-06T04:00:46.728Z,79.55
2023-05-06T04:03:19.523Z,79.30
2023-05-06T04:05:52.608Z,79.14
2023-05-06T04:08:25.312Z,79.24
2023-05-06T04:10:58.367Z,79.14
2023-05-06T04:13:32.821Z,79.12
2023-05-06T04:16:05.736Z,79.02
2023-05-06T04:18:39.868Z,79.00
2023-05-06T04:21:13.050Z,79.19
2023-05-06T04:23:45.848Z,79.30
2023-05-06T04:26:18.519Z,79.26
2023-05-06T04:28:52.920Z,79.31
2023-05-06T04:31:25.679Z,79.41
2023-05-06T04:33:58.506Z,79.66
2023-05-06T04:36:31.231Z,79.70
2023-05-06T04:39:06.953Z,79.71
2023-05-06T04:41:39.857Z,80.06
2023-05-06T04:44:14.043Z,79.69
2023-05-06T04:46:47.541Z,79.88
2023-05-06T04:49:20.263Z,80.04
2023-05-06T04:51:53.022Z,79.94
2023-05-06T04:54:26.005Z,79.79
2023-05-06T04:56:58.783Z,79.76
2023-05-06T04:59:33.018Z,79.67
2023-05-06T05:02:06.426Z,79.76
2023-05-06T05:04:39.516Z,79.80
2023-05-06T05:07:12.225Z,79.66
2023-05-06T05:09:45.530Z,79.99
2023-05-06T05:12:18.195Z,79.96
2023-05-06T05:14:52.793Z,80.34
2023-05-06T05:17:25.594Z,80.40
2023-05-06T05:19:58.375Z,80.18
2023-05-06T05:22:31.055Z,80.04
2023-05-06T05:25:05.570Z,80.01
2023-05-06T05:27:39.703Z,79.57
2023-05-06T05:30:14.132Z,79.50
2023-05-06T05:32:46.853Z,79.17
2023-05-06T05:35:20.062Z,78.89
2023-05-06T05:37:52.727Z,79.53
2023-05-06T05:40:25.538Z,79.32
2023-05-06T05:42:58.297Z,79.59
2023-05-06T05:45:32.492Z,80.10
2023-05-06T05:48:05.393Z,80.35
2023-05-06T05:50:38.204Z,81.17
2023-05-06T05:53:10.895Z,81.84
2023-05-06T05:55:43.868Z,81.83
2023-05-06T05:58:16.556Z,82.04
2023-05-06T06:00:50.814Z,82.54
2023-05-06T06:03:23.660Z,82.94
2023-05-06T06:05:56.853Z,83.30
2023-05-06T06:08:29.838Z,82.89
2023-05-06T06:11:04.618Z,83.68
2023-05-06T06:13:37.265Z,84.15
2023-05-06T06:16:11.994Z,84.98
2023-05-06T06:18:44.884Z,85.04
2023-05-06T06:21:19.967Z,85.47
2023-05-06T06:23:52.635Z,84.56
2023-05-06T06:26:25.540Z,84.61
2023-05-06T06:28:58.231Z,84.98
2023-05-06T06:31:34.028Z,84.55
2023-05-06T06:34:08.981Z,84.02
2023-05-06T06:36:45.226Z,83.38
2023-05-06T06:39:19.793Z,83.84
2023-05-06T06:41:52.951Z,83.54
2023-05-06T06:44:25.626Z,83.06
2023-05-06T06:47:00.048Z,82.26
2023-05-06T06:49:32.798Z,81.29
2023-05-06T06:52:06.088Z,81.31
2023-05-06T06:54:38.826Z,81.46
2023-05-06T06:57:11.508Z,81.88
2023-05-06T06:59:44.350Z,80.11
2023-05-06T07:02:18.454Z,80.56
2023-05-06T07:04:51.188Z,79.22
2023-05-06T07:07:23.956Z,79.27
2023-05-06T07:09:58.071Z,78.23
2023-05-06T07:12:31.076Z,77.72
2023-05-06T07:15:06.832Z,78.66
2023-05-06T07:17:41.150Z,76.25
2023-05-06T07:20:14.493Z,76.46
2023-05-06T07:22:47.337Z,75.42
2023-05-06T07:25:20.184Z,76.32
2023-05-06T07:27:52.933Z,76.44
2023-05-06T07:30:26.212Z,77.11
2023-05-06T07:33:01.762Z,77.32
2023-05-06T07:35:34.692Z,77.89
2023-05-06T07:38:07.786Z,79.71
2023-05-06T07:40:41.119Z,80.07
2023-05-06T07:43:13.849Z,79.78
2023-05-06T07:45:46.614Z,77.75
2023-05-06T07:48:21.046Z,78.69
2023-05-06T07:50:53.840Z,77.74
2023-05-06T07:53:27.142Z,79.52
2023-05-06T07:56:02.259Z,78.25
2023-05-06T07:58:35.132Z,77.12
2023-05-06T08:01:10.155Z,76.70
2023-05-06T08:03:44.895Z,76.24
2023-05-06T08:06:17.749Z,76.05
2023-05-06T08:08:50.601Z,76.44
2023-05-06T08:11:23.734Z,77.81
2023-05-06T08:13:56.430Z,76.12
2023-05-06T08:16:29.317Z,76.07
2023-05-06T08:19:03.839Z,77.41
2023-05-06T08:21:36.519Z,73.74
2023-05-06T08:24:10.796Z,76.53
2023-05-06T08:26:43.504Z,74.85
2023-05-06T08:29:16.244Z,75.53
2023-05-06T08:31:49.006Z,77.70
2023-05-06T08:34:23.477Z,76.30
2023-05-06T08:36:56.867Z,75.82
2023-05-06T08:39:30.859Z,76.13
2023-05-06T08:42:04.324Z,76.43
2023-05-06T08:44:37.563Z,76.82
2023-05-06T08:47:10.648Z,75.75
2023-05-06T08:49:44.811Z,77.43
2023-05-06T08:52:17.721Z,76.66
2023-05-06T08:54:51.973Z,73.93
2023-05-06T08:57:24.707Z,73.72
2023-05-06T08:59:57.598Z,77.67
2023-05-06T09:02:30.317Z,77.84
2023-05-06T09:05:05.540Z,75.89
2023-05-06T09:07:38.281Z,74.88
2023-05-06T09:10:14.001Z,76.06
2023-05-06T09:12:46.974Z,78.67
2023-05-06T09:15:24.691Z,78.59
2023-05-06T09:17:57.537Z,79.61
2023-05-06T09:20:34.024Z,73.99
2023-05-06T09:23:08.456Z,75.04
2023-05-06T09:25:41.417Z,75.66
2023-05-06T09:28:15.329Z,73.68
2023-05-06T09:30:48.794Z,72.17
2023-05-06T09:33:22.665Z,72.86
2023-05-06T09:35:57.885Z,74.37
2023-05-06T09:38:30.880Z,73.68
2023-05-06T09:41:04.881Z,73.69
2023-05-06T09:43:37.652Z,73.21
2023-05-06T09:46:10.860Z,73.81
2023-05-06T09:48:43.679Z,74.42
2023-05-06T09:51:17.757Z,71.82
2023-05-06T09:53:50.705Z,76.34
2023-05-06T09:56:23.921Z,74.86
2023-05-06T09:58:57.049Z,74.66
2023-05-06T10:01:36.878Z,73.96
2023-05-06T10:04:11.064Z,75.76
2023-05-06T10:06:45.522Z,76.58
2023-05-06T10:09:18.785Z,74.51
2023-05-06T10:11:52.222Z,75.85
2023-05-06T10:14:24.867Z,71.63
2023-05-06T10:16:57.664Z,73.85
2023-05-06T10:19:31.041Z,76.56
2023-05-06T10:22:08.827Z,75.65
2023-05-06T10:24:46.382Z,75.05
2023-05-06T10:27:19.959Z,77.10
2023-05-06T10:29:54.352Z,75.82
2023-05-06T10:32:29.112Z,75.61
2023-05-06T10:35:06.976Z,75.92
2023-05-06T10:37:42.009Z,71.20
2023-05-06T10:40:14.995Z,72.52
2023-05-06T10:42:47.661Z,73.04
2023-05-06T10:45:20.641Z,73.49
2023-05-06T10:48:08.709Z,75.58
2023-05-06T10:50:41.755Z,70.76
2023-05-06T10:53:15.880Z,70.63
2023-05-06T10:55:48.638Z,71.16
2023-05-06T10:58:21.390Z,75.18
2023-05-06T11:00:54.539Z,73.18
2023-05-06T11:03:27.924Z,76.90
2023-05-06T11:06:00.828Z,70.49
2023-05-06T11:08:35.219Z,73.12
2023-05-06T11:11:23.056Z,76.04
2023-05-06T11:13:55.732Z,74.46
2023-05-06T11:16:52.206Z,68.04
2023-05-06T11:19:26.466Z,73.20
2023-05-06T11:21:59.838Z,72.49
2023-05-06T11:24:41.593Z,73.81
2023-05-06T11:27:19.598Z,75.03
2023-05-06T11:29:52.534Z,73.83
2023-05-06T11:32:26.502Z,72.72
2023-05-06T11:34:59.317Z,65.41
2023-05-06T11:37:32.065Z,72.92
2023-05-06T11:40:14.885Z,72.03
2023-05-06T11:42:47.571Z,66.91
2023-05-06T11:45:20.277Z,65.76
2023-05-06T11:47:55.354Z,70.81
2023-05-06T11:50:28.296Z,73.75
2023-05-06T11:53:01.070Z,72.42
2023-05-06T11:55:36.461Z,71.44
2023-05-06T11:58:13.593Z,73.12
2023-05-06T12:00:51.936Z,75.08
2023-05-06T12:03:25.819Z,75.88
2023-05-06T12:05:58.956Z,74.75
2023-05-06T12:08:33.231Z,69.76
2023-05-06T12:11:08.178Z,74.91
2023-05-06T12:13:41.093Z,72.35
2023-05-06T12:16:15.701Z,70.45
2023-05-06T12:18:48.617Z,72.08
2023-05-06T12:21:24.774Z,75.79
2023-05-06T12:23:59.395Z,75.53
2023-05-06T12:26:45.261Z,76.99
2023-05-06T12:29:18.387Z,74.23
2023-05-06T12:31:51.126Z,72.97
2023-05-06T12:34:37.135Z,76.73
2023-05-06T12:37:09.948Z,73.89
2023-05-06T12:39:42.966Z,76.01
2023-05-06T12:42:21.013Z,77.67
2023-05-06T12:44:53.729Z,75.06
2023-05-06T12:47:27.028Z,75.07
2023-05-06T12:50:00.677Z,74.06
2023-05-06T12:52:33.478Z,74.54
2023-05-06T12:55:06.780Z,75.41
2023-05-06T12:57:40.969Z,74.82
2023-05-06T13:00:14.383Z,76.93
2023-05-06T13:02:47.531Z,78.54
2023-05-06T13:05:20.393Z,75.69
2023-05-06T13:07:54.036Z,74.79
2023-05-06T13:10:26.847Z,76.34
2023-05-06T13:13:00.923Z,77.50
2023-05-06T13:15:33.734Z,77.74
2023-05-06T13:18:07.068Z,77.18
2023-05-06T13:20:39.933Z,76.10
2023-05-06T13:23:12.709Z,76.55
2023-05-06T13:26:00.384Z,76.56
2023-05-06T13:28:39.427Z,75.69
2023-05-06T13:31:12.200Z,77.61
2023-05-06T13:33:45.006Z,78.92
2023-05-06T13:36:17.663Z,79.03
2023-05-06T13:38:50.523Z,76.47
2023-05-06T13:41:25.372Z,74.21
2023-05-06T13:43:59.514Z,75.09
2023-05-06T13:46:32.199Z,71.50
2023-05-06T13:49:04.892Z,71.24
2023-05-06T13:51:37.575Z,72.54
2023-05-06T13:54:10.418Z,72.71
2023-05-06T13:56:43.010Z,71.14
2023-05-06T13:59:17.195Z,73.57
2023-05-06T14:01:53.601Z,73.59
2023-05-06T14:04:26.468Z,70.09
2023-05-06T14:06:59.277Z,72.15
2023-05-06T14:09:32.473Z,72.31
2023-05-06T14:12:05.879Z,73.10
2023-05-06T14:14:40.025Z,72.43
2023-05-06T14:17:12.742Z,71.91
2023-05-06T14:19:46.006Z,72.28
2023-05-06T14:22:18.807Z,73.04
2023-05-06T14:24:51.530Z,72.04
2023-05-06T14:27:24.244Z,72.73
2023-05-06T14:29:58.426Z,74.98
2023-05-06T14:32:31.144Z,73.49
2023-05-06T14:35:03.881Z,73.90
2023-05-06T14:37:36.613Z,74.73
2023-05-06T14:40:10.461Z,74.68
2023-05-06T14:42:43.448Z,76.44
2023-05-06T14:45:17.549Z,77.19
2023-05-06T14:47:50.326Z,75.48
2023-05-06T14:50:23.102Z,73.82
2023-05-06T14:52:55.982Z,72.33
2023-05-06T14:55:28.986Z,73.67
2023-05-06T14:58:01.925Z,72.35
2023-05-06T15:00:36.185Z,74.09
2023-05-06T15:03:08.981Z,72.27
2023-05-06T15:05:41.815Z,70.46
2023-05-06T15:08:14.528Z,72.73
2023-05-06T15:10:49.130Z,72.82
2023-05-06T15:13:21.897Z,74.68
2023-05-06T15:15:56.300Z,74.16
2023-05-06T15:18:28.968Z,63.46
2023-05-06T15:21:02.055Z,72.07
2023-05-06T15:23:34.779Z,71.91
2023-05-06T15:26:07.532Z,76.24
2023-05-06T15:28:40.209Z,75.81
2023-05-06T15:31:14.443Z,76.14
2023-05-06T15:33:47.100Z,75.87
2023-05-06T15:36:19.838Z,76.77
2023-05-06T15:38:59.661Z,71.45
2023-05-06T15:41:33.753Z,73.56
2023-05-06T15:44:06.751Z,65.62
2023-05-06T15:46:41.324Z,72.19
2023-05-06T15:49:45.349Z,72.26
2023-05-06T15:52:06.778Z,73.80
2023-05-06T15:54:41.107Z,74.18
2023-05-06T15:57:14.825Z,74.00
2023-05-06T15:59:47.611Z,72.67
2023-05-06T16:04:57.377Z,75.04
2023-05-06T16:07:30.231Z,74.61
2023-05-06T16:10:03.209Z,73.38
2023-05-06T16:12:35.901Z,71.89
2023-05-06T16:15:09.242Z,72.20
2023-05-06T16:17:43.428Z,74.48
2023-05-06T16:20:16.278Z,72.18
2023-05-06T16:22:50.785Z,72.43
2023-05-06T16:25:23.801Z,72.39
2023-05-06T16:27:56.631Z,72.68
2023-05-06T16:30:29.810Z,74.80
2023-05-06T16:33:04.242Z,72.72
2023-05-06T16:35:36.930Z,72.38
2023-05-06T16:38:09.823Z,73.42
2023-05-06T16:40:43.475Z,72.88
2023-05-06T16:43:16.350Z,73.03
2023-05-06T16:45:49.140Z,72.24
2023-05-06T16:48:23.672Z,73.52
2023-05-06T16:50:56.446Z,72.62
2023-05-06T16:53:29.564Z,73.93
2023-05-06T16:56:03.083Z,71.45
2023-05-06T16:58:35.917Z,72.27
2023-05-06T17:01:08.907Z,72.41
2023-05-06T17:03:43.061Z,72.95
2023-05-06T17:06:15.860Z,73.04
2023-05-06T17:08:48.740Z,74.16
2023-05-06T17:11:21.722Z,72.70
2023-05-06T17:13:54.757Z,72.35
2023-05-06T17:16:27.485Z,72.50
2023-05-06T17:19:02.345Z,72.65
2023-05-06T17:21:35.105Z,72.81
2023-05-06T17:24:08.649Z,72.38
2023-05-06T17:26:41.773Z,72.14
2023-05-06T17:29:14.498Z,72.64
2023-05-06T17:31:47.230Z,74.85
2023-05-06T17:36:55.952Z,73.56
2023-05-06T17:39:28.723Z,73.64
2023-05-06T17:42:01.795Z,73.59
2023-05-06T17:44:35.404Z,72.92
2023-05-06T17:47:07.998Z,72.47
2023-05-06T17:49:42.078Z,72.83
2023-05-06T17:52:14.894Z,72.41
2023-05-06T17:54:56.946Z,71.86
2023-05-06T17:57:38.689Z,72.13
2023-05-06T18:00:11.853Z,71.87
2023-05-06T18:02:44.839Z,71.82
2023-05-06T18:05:19.036Z,71.45
2023-05-06T18:07:51.824Z,71.73
2023-05-06T18:10:24.597Z,71.64
2023-05-06T18:12:57.749Z,71.48
2023-05-06T18:15:30.669Z,71.58
2023-05-06T18:18:03.428Z,71.48
2023-05-06T18:20:37.508Z,71.52
2023-05-06T18:23:10.166Z,71.53
2023-05-06T18:25:42.917Z,71.37
2023-05-06T18:28:16.416Z,71.41
2023-05-06T18:30:49.133Z,71.37
2023-05-06T18:33:21.964Z,71.46
2023-05-06T18:35:56.366Z,71.40
2023-05-06T18:38:29.577Z,71.51
2023-05-06T18:41:03.274Z,71.49
2023-05-06T18:43:36.053Z,71.69
2023-05-06T18:46:08.941Z,71.54
2023-05-06T18:48:41.780Z,71.62
2023-05-06T18:51:17.232Z,71.70
2023-05-06T18:53:50.031Z,71.72
2023-05-06T18:56:22.813Z,71.76
2023-05-06T18:58:55.546Z,71.76
2023-05-06T19:01:28.388Z,71.87
2023-05-06T19:04:01.483Z,72.15
2023-05-06T19:06:38.496Z,72.11
2023-05-06T19:09:11.375Z,72.21
2023-05-06T19:11:44.189Z,72.31
2023-05-06T19:14:16.926Z,72.09
2023-05-06T19:16:50.110Z,72.44
2023-05-06T19:19:22.897Z,72.36
2023-05-06T19:21:57.513Z,72.18
2023-05-06T19:24:31.310Z,72.25
2023-05-06T19:27:04.043Z,72.50
2023-05-06T19:29:36.822Z,72.34
2023-05-06T19:32:09.809Z,72.58
2023-05-06T19:34:42.468Z,72.79
2023-05-06T19:37:16.580Z,72.93
2023-05-06T19:39:49.597Z,72.76
2023-05-06T19:42:22.304Z,73.09
2023-05-06T19:44:55.043Z,73.06
2023-05-06T19:47:30.732Z,72.89
2023-05-06T19:50:03.454Z,72.85
2023-05-06T19:52:37.716Z,73.19
2023-05-06T19:55:11.245Z,72.92
2023-05-06T19:57:44.060Z,72.74
2023-05-06T20:00:18.445Z,72.84
2023-05-06T20:02:51.394Z,72.75
2023-05-06T20:05:24.281Z,72.85
2023-05-06T20:07:59.699Z,72.88
2023-05-06T20:10:32.330Z,72.64
2023-05-06T20:13:05.219Z,72.76
2023-05-06T20:15:38.006Z,72.62
2023-05-06T20:18:10.781Z,72.72
2023-05-06T20:20:43.570Z,72.47
2023-05-06T20:23:17.613Z,72.73
2023-05-06T20:25:50.356Z,72.56
2023-05-06T20:28:23.557Z,72.56
2023-05-06T20:30:59.667Z,72.50
2023-05-06T20:33:32.458Z,72.65
2023-05-06T20:36:05.949Z,72.61
2023-05-06T20:38:40.652Z,72.65
2023-05-06T20:41:13.689Z,72.49
2023-05-06T20:43:46.420Z,72.58
2023-05-06T20:46:20.551Z,72.58
2023-05-06T20:48:53.409Z,72.56
2023-05-06T20:51:26.233Z,72.79
2023-05-06T20:54:01.176Z,72.79
2023-05-06T20:56:33.948Z,72.95
2023-05-06T20:59:07.076Z,72.93
2023-05-06T21:01:39.943Z,73.14
2023-05-06T21:04:12.788Z,73.03
2023-05-06T21:06:45.587Z,73.03
2023-05-06T21:09:19.771Z,73.11
2023-05-06T21:11:52.521Z,73.19
2023-05-06T21:14:27.377Z,73.09
2023-05-06T21:17:00.188Z,73.12
2023-05-06T21:19:33.317Z,72.96
2023-05-06T21:22:09.956Z,73.06
2023-05-06T21:24:44.234Z,73.14
2023-05-06T21:27:16.976Z,73.05
2023-05-06T21:29:49.786Z,72.97
2023-05-06T21:32:22.693Z,73.03
2023-05-06T21:34:55.474Z,72.96
2023-05-06T21:37:28.221Z,73.00
2023-05-06T21:40:04.444Z,73.12
2023-05-06T21:42:37.183Z,73.29
2023-05-06T21:45:11.506Z,73.13
2023-05-06T21:47:45.206Z,73.26
2023-05-06T21:50:18.097Z,73.41
2023-05-06T21:52:50.742Z,73.41
2023-05-06T21:55:27.773Z,73.67
2023-05-06T21:58:00.542Z,73.64
2023-05-06T22:00:33.446Z,73.88
2023-05-06T22:03:06.398Z,73.63
2023-05-06T22:05:40.098Z,73.58
2023-05-06T22:08:12.835Z,73.65
2023-05-06T22:10:47.068Z,73.66
2023-05-06T22:13:20.934Z,73.69
2023-05-06T22:15:55.909Z,73.77
2023-05-06T22:18:30.138Z,73.88
2023-05-06T22:21:03.399Z,73.62
2023-05-06T22:23:36.309Z,74.03
2023-05-06T22:26:10.515Z,74.02
2023-05-06T22:28:43.166Z,74.05
2023-05-06T22:31:16.018Z,74.25
2023-05-06T22:33:52.196Z,74.26
2023-05-06T22:36:26.886Z,73.97
2023-05-06T22:38:59.635Z,73.87
2023-05-06T22:41:33.815Z,73.80
2023-05-06T22:44:06.570Z,73.78
2023-05-06T22:46:39.417Z,74.06
2023-05-06T22:49:12.129Z,73.83
2023-05-06T22:51:44.928Z,73.99
2023-05-06T22:54:17.588Z,74.00
2023-05-06T22:56:51.815Z,74.31
2023-05-06T22:59:24.608Z,74.34
2023-05-06T23:01:57.505Z,74.25
2023-05-06T23:04:30.296Z,74.56
2023-05-06T23:07:03.003Z,74.22
2023-05-06T23:09:35.685Z,74.29
2023-05-06T23:12:09.856Z,74.36
2023-05-06T23:14:42.614Z,74.55
2023-05-06T23:17:15.346Z,74.56
2023-05-06T23:19:48.097Z,74.58
2023-05-06T23:22:20.931Z,74.32
2023-05-06T23:24:53.701Z,74.69
2023-05-06T23:27:27.823Z,74.56
2023-05-06T23:30:00.540Z,74.36
2023-05-06T23:32:33.445Z,74.62
2023-05-06T23:35:07.783Z,74.63
2023-05-06T23:37:40.689Z,74.62
2023-05-06T23:40:14.203Z,74.46
2023-05-06T23:42:48.314Z,74.58
2023-05-06T23:45:21.043Z,74.94
2023-05-06T23:47:54.031Z,74.99
2023-05-06T23:50:26.864Z,74.76
2023-05-06T23:52:59.688Z,74.72
2023-05-06T23:55:32.488Z,74.88
2023-05-06T23:58:06.644Z,75.11
